createdAt,value
2019-05-12T00:01:09.784Z,4.70
2019-05-12T00:03:31.271Z,4.85
2019-05-12T00:05:52.913Z,4.65
2019-05-12T00:08:14.340Z,5.35
2019-05-12T00:10:35.722Z,5.00
2019-05-12T00:12:58.251Z,5.83
2019-05-12T00:15:19.802Z,5.58
2019-05-12T00:17:41.354Z,4.47
2019-05-12T00:20:04.776Z,5.42
2019-05-12T00:22:28.685Z,5.27
2019-05-12T00:24:50.425Z,5.65
2019-05-12T00:27:13.714Z,4.78
2019-05-12T00:29:37.711Z,3.30
2019-05-12T00:31:59.045Z,4.78
2019-05-12T00:34:20.837Z,4.80
2019-05-12T00:36:42.377Z,4.45
2019-05-12T00:39:07.944Z,5.08
2019-05-12T00:41:28.841Z,4.75
2019-05-12T00:43:50.408Z,4.80
2019-05-12T00:46:11.890Z,4.85
2019-05-12T00:48:33.294Z,5.00
2019-05-12T00:50:54.721Z,5.50
2019-05-12T00:53:16.108Z,4.80
2019-05-12T00:55:38.052Z,5.28
2019-05-12T00:58:00.323Z,4.92
2019-05-12T01:00:21.702Z,5.28
2019-05-12T01:02:42.993Z,4.78
2019-05-12T01:05:08.613Z,4.20
2019-05-12T01:07:30.349Z,5.00
2019-05-12T01:09:51.743Z,5.12
2019-05-12T01:12:13.524Z,4.92
2019-05-12T01:14:34.802Z,4.97
2019-05-12T01:16:57.833Z,4.83
2019-05-12T01:19:19.713Z,5.08
2019-05-12T01:21:40.975Z,4.65
2019-05-12T01:24:03.454Z,4.70
2019-05-12T01:26:25.200Z,4.70
2019-05-12T01:28:48.784Z,5.10
2019-05-12T01:31:12.021Z,5.25
2019-05-12T01:33:33.569Z,5.70
2019-05-12T01:35:54.945Z,5.75
2019-05-12T01:38:18.188Z,4.40
2019-05-12T01:40:39.911Z,5.15
2019-05-12T01:43:01.662Z,5.30
2019-05-12T01:45:23.281Z,5.28
2019-05-12T01:47:44.813Z,5.62
2019-05-12T01:50:09.098Z,6.08
2019-05-12T01:52:30.195Z,5.72
2019-05-12T01:54:51.497Z,6.25
2019-05-12T01:57:13.103Z,6.95
2019-05-12T01:59:34.384Z,7.30
2019-05-12T02:01:57.965Z,5.72
2019-05-12T02:04:19.197Z,6.08
2019-05-12T02:06:40.487Z,7.05
2019-05-12T02:09:03.714Z,7.20
2019-05-12T02:11:31.130Z,7.12
2019-05-12T02:13:52.609Z,7.17
2019-05-12T02:16:14.033Z,7.50
2019-05-12T02:18:37.760Z,7.12
2019-05-12T02:20:59.101Z,7.27
2019-05-12T02:23:20.525Z,7.17
2019-05-12T02:25:42.134Z,7.17
2019-05-12T02:28:03.738Z,7.45
2019-05-12T02:30:25.363Z,6.87
2019-05-12T02:32:52.993Z,7.00
2019-05-12T02:35:09.827Z,6.58
2019-05-12T02:37:31.155Z,6.83
2019-05-12T02:39:55.445Z,6.53
2019-05-12T02:42:15.943Z,7.30
2019-05-12T02:44:37.385Z,7.08
2019-05-12T02:46:58.931Z,6.17
2019-05-12T02:49:20.364Z,6.97
2019-05-12T02:51:44.700Z,5.75
2019-05-12T02:54:05.855Z,6.03
2019-05-12T02:56:27.653Z,6.47
2019-05-12T02:58:49.074Z,6.22
2019-05-12T03:01:10.568Z,6.80
2019-05-12T03:03:35.015Z,7.10
2019-05-12T03:05:56.562Z,6.25
2019-05-12T03:08:19.071Z,6.62
2019-05-12T03:10:44.698Z,6.83
2019-05-12T03:13:04.574Z,6.80
2019-05-12T03:15:26.564Z,7.03
2019-05-12T03:17:48.332Z,6.47
2019-05-12T03:20:09.742Z,6.33
2019-05-12T03:22:31.226Z,6.70
2019-05-12T03:25:07.749Z,5.92
2019-05-12T03:27:17.861Z,6.35
2019-05-12T03:29:38.934Z,6.58
2019-05-12T03:32:00.448Z,6.25
2019-05-12T03:34:21.765Z,5.97
2019-05-12T03:36:49.981Z,6.25
2019-05-12T03:39:07.959Z,5.80
2019-05-12T03:41:29.313Z,5.95
2019-05-12T03:43:50.809Z,6.20
2019-05-12T03:46:14.990Z,6.17
2019-05-12T03:48:35.446Z,5.90
2019-05-12T03:50:57.027Z,4.83
2019-05-12T03:53:18.313Z,4.97
2019-05-12T03:55:42.309Z,5.65
2019-05-12T03:58:04.531Z,5.53
2019-05-12T04:00:26.227Z,5.62
2019-05-12T04:02:47.643Z,5.45
2019-05-12T04:05:08.916Z,5.40
2019-05-12T04:07:30.300Z,5.62
2019-05-12T04:09:54.578Z,6.53
2019-05-12T04:12:15.112Z,6.00
2019-05-12T04:14:36.383Z,5.58
2019-05-12T04:16:57.874Z,6.20
2019-05-12T04:19:19.467Z,6.40
2019-05-12T04:21:44.349Z,6.97
2019-05-12T04:24:05.506Z,4.60
2019-05-12T04:26:27.521Z,5.58
2019-05-12T04:28:49.026Z,6.12
2019-05-12T04:31:10.526Z,6.50
2019-05-12T04:33:34.670Z,5.90
2019-05-12T04:35:55.533Z,6.08
2019-05-12T04:38:17.079Z,5.87
2019-05-12T04:40:38.454Z,6.70
2019-05-12T04:43:00.009Z,5.60
2019-05-12T04:45:21.306Z,6.80
2019-05-12T04:47:44.943Z,7.45
2019-05-12T04:50:06.401Z,5.73
2019-05-12T04:52:27.982Z,7.03
2019-05-12T04:54:49.382Z,7.05
2019-05-12T04:57:10.797Z,7.20
2019-05-12T04:59:34.498Z,7.25
2019-05-12T05:01:55.558Z,7.35
2019-05-12T05:04:17.082Z,7.53
2019-05-12T05:07:35.838Z,7.60
2019-05-12T05:09:57.863Z,7.55
2019-05-12T05:12:19.480Z,7.83
2019-05-12T05:14:41.107Z,7.42
2019-05-12T05:17:05.533Z,7.72
2019-05-12T05:19:26.537Z,8.10
2019-05-12T05:21:48.165Z,6.97
2019-05-12T05:24:09.838Z,7.42
2019-05-12T05:26:36.404Z,7.35
2019-05-12T05:28:55.390Z,7.60
2019-05-12T05:31:17.032Z,7.55
2019-05-12T05:33:38.663Z,7.28
2019-05-12T05:36:00.308Z,7.28
2019-05-12T05:38:23.689Z,7.50
2019-05-12T05:40:45.370Z,6.83
2019-05-12T05:43:18.389Z,6.85
2019-05-12T05:45:30.777Z,5.17
2019-05-12T05:47:54.289Z,6.33
2019-05-12T05:50:18.551Z,6.17
2019-05-12T05:52:39.713Z,6.40
2019-05-12T05:55:05.916Z,5.95
2019-05-12T05:57:28.289Z,5.93
2019-05-12T05:59:48.283Z,6.23
2019-05-12T06:02:09.925Z,6.15
2019-05-12T06:04:33.911Z,5.95
2019-05-12T06:06:56.041Z,5.17
2019-05-12T06:09:17.965Z,7.30
2019-05-12T06:11:39.580Z,6.42
2019-05-12T06:14:03.048Z,7.17
2019-05-12T06:16:25.263Z,7.57
2019-05-12T06:18:47.358Z,7.45
2019-05-12T06:21:09.221Z,6.90
2019-05-12T06:23:34.914Z,7.28
2019-05-12T06:25:54.904Z,7.43
2019-05-12T06:28:17.133Z,6.62
2019-05-12T06:30:44.304Z,7.25
2019-05-12T06:33:04.191Z,7.65
2019-05-12T06:35:26.013Z,6.78
2019-05-12T06:37:57.313Z,7.42
2019-05-12T06:40:11.109Z,7.53
2019-05-12T06:42:34.195Z,7.28
2019-05-12T06:44:58.163Z,8.17
2019-05-12T06:47:20.040Z,7.90
2019-05-12T06:49:43.865Z,7.67
2019-05-12T06:52:07.175Z,7.00
2019-05-12T06:54:28.610Z,7.13
2019-05-12T06:56:55.294Z,7.55
2019-05-12T06:59:19.723Z,8.23
2019-05-12T07:01:41.356Z,8.98
2019-05-12T07:04:06.455Z,7.40
2019-05-12T07:06:26.748Z,7.77
2019-05-12T07:09:01.270Z,6.72
2019-05-12T07:11:14.348Z,5.80
2019-05-12T07:13:35.993Z,6.42
2019-05-12T07:15:59.495Z,6.08
2019-05-12T07:18:24.421Z,6.12
2019-05-12T07:20:45.570Z,6.87
2019-05-12T07:23:07.223Z,5.87
2019-05-12T07:25:31.163Z,5.78
2019-05-12T07:27:58.513Z,6.83
2019-05-12T07:30:20.441Z,6.40
2019-05-12T07:32:43.405Z,5.92
2019-05-12T07:35:06.004Z,6.50
2019-05-12T07:37:29.990Z,7.15
2019-05-12T07:39:53.834Z,6.78
2019-05-12T07:42:15.534Z,7.12
2019-05-12T07:44:40.064Z,7.22
2019-05-12T07:49:34.080Z,6.90
2019-05-12T07:51:50.131Z,6.47
2019-05-12T07:54:14.298Z,6.50
2019-05-12T07:56:36.080Z,6.40
2019-05-12T07:58:58.045Z,6.22
2019-05-12T08:01:19.669Z,7.00
2019-05-12T08:03:43.530Z,6.40
2019-05-12T08:06:04.978Z,6.72
2019-05-12T08:08:26.615Z,6.25
2019-05-12T08:10:51.523Z,6.37
2019-05-12T08:13:11.688Z,6.28
2019-05-12T08:15:34.104Z,6.67
2019-05-12T08:17:59.595Z,6.40
2019-05-12T08:20:38.944Z,6.77
2019-05-12T08:23:05.861Z,7.20
2019-05-12T08:25:28.699Z,9.95
2019-05-12T08:27:51.297Z,9.20
2019-05-12T08:30:13.814Z,7.87
2019-05-12T08:32:35.245Z,6.53
2019-05-12T08:34:56.944Z,6.58
2019-05-12T08:37:19.301Z,6.70
2019-05-12T08:39:44.261Z,6.35
2019-05-12T08:42:06.195Z,6.00
2019-05-12T08:44:33.757Z,6.80
2019-05-12T08:49:15.887Z,5.72
2019-05-12T08:51:38.456Z,5.33
2019-05-12T08:54:07.838Z,5.80
2019-05-12T08:56:26.100Z,6.10
2019-05-12T08:58:51.075Z,5.65
2019-05-12T09:01:10.541Z,5.58
2019-05-12T09:03:33.533Z,5.62
2019-05-12T09:05:55.281Z,5.58
2019-05-12T09:08:16.977Z,5.40
2019-05-12T09:10:38.600Z,6.08
2019-05-12T09:13:00.221Z,6.00
2019-05-12T09:15:23.410Z,5.33
2019-05-12T09:17:52.504Z,5.13
2019-05-12T09:20:09.044Z,4.83
2019-05-12T09:22:30.683Z,5.12
2019-05-12T09:24:53.409Z,4.85
2019-05-12T09:27:15.430Z,5.42
2019-05-12T09:29:37.079Z,4.90
2019-05-12T09:31:59.278Z,5.30
2019-05-12T09:34:23.521Z,4.80
2019-05-12T09:36:45.296Z,5.22
2019-05-12T09:39:07.451Z,5.20
2019-05-12T09:41:35.987Z,5.25
2019-05-12T09:43:53.430Z,5.30
2019-05-12T09:46:15.392Z,4.30
2019-05-12T09:48:39.116Z,4.60
2019-05-12T09:51:05.797Z,4.95
2019-05-12T09:53:26.417Z,4.53
2019-05-12T09:55:48.091Z,4.53
2019-05-12T09:58:16.228Z,4.55
2019-05-12T10:00:35.786Z,5.12
2019-05-12T10:05:20.647Z,5.22
2019-05-12T10:07:44.364Z,5.20
2019-05-12T10:10:06.324Z,4.25
2019-05-12T10:12:29.695Z,3.37
2019-05-12T10:14:53.427Z,4.20
2019-05-12T10:17:14.823Z,3.55
2019-05-12T10:19:36.444Z,4.05
2019-05-12T10:21:59.551Z,3.10
2019-05-12T10:24:21.631Z,3.42
2019-05-12T10:26:48.920Z,3.15
2019-05-12T10:29:16.481Z,3.55
2019-05-12T10:31:35.550Z,3.10
2019-05-12T10:33:58.217Z,3.70
2019-05-12T10:36:18.779Z,3.50
2019-05-12T10:38:40.404Z,4.12
2019-05-12T10:41:04.417Z,2.80
2019-05-12T10:43:26.122Z,2.37
2019-05-12T10:45:48.118Z,2.85
2019-05-12T10:48:09.728Z,2.25
2019-05-12T10:50:33.800Z,2.47
2019-05-12T10:52:54.730Z,2.65
2019-05-12T10:55:16.649Z,2.70
2019-05-12T10:57:38.280Z,2.60
2019-05-12T10:59:59.899Z,2.67
2019-05-12T11:02:26.413Z,2.40
2019-05-12T11:04:44.953Z,2.60
2019-05-12T11:07:06.671Z,2.37
2019-05-12T11:09:31.540Z,2.05
2019-05-12T11:11:53.927Z,2.60
2019-05-12T11:14:15.241Z,2.50
2019-05-12T11:16:36.935Z,2.30
2019-05-12T11:19:00.233Z,2.90
2019-05-12T11:21:22.009Z,2.45
2019-05-12T11:23:43.730Z,1.50
2019-05-12T11:26:05.712Z,1.72
2019-05-12T11:28:27.335Z,1.67
2019-05-12T11:30:48.995Z,1.22
2019-05-12T11:33:10.609Z,1.65
2019-05-12T11:35:33.435Z,1.55
2019-05-12T11:37:55.261Z,1.30
2019-05-12T11:40:16.940Z,1.70
2019-05-12T11:42:38.562Z,2.10
2019-05-12T11:45:20.017Z,2.10
2019-05-12T11:47:41.683Z,2.60
2019-05-12T11:50:09.742Z,2.12
2019-05-12T11:52:30.861Z,2.20
2019-05-12T11:54:53.842Z,1.80
2019-05-12T11:57:20.201Z,2.20
2019-05-12T11:59:39.003Z,2.58
2019-05-12T12:02:00.960Z,2.10
2019-05-12T12:04:24.392Z,2.10
2019-05-12T12:06:46.055Z,2.25
2019-05-12T12:09:09.309Z,2.22
2019-05-12T12:11:31.115Z,1.98
2019-05-12T12:13:53.562Z,2.02
2019-05-12T12:16:15.572Z,2.30
2019-05-12T12:18:37.535Z,1.65
2019-05-12T12:21:04.094Z,1.95
2019-05-12T12:23:23.404Z,1.82
2019-05-12T12:25:48.524Z,1.65
2019-05-12T12:28:09.328Z,1.80
2019-05-12T12:30:33.687Z,2.30
2019-05-12T12:32:57.111Z,1.40
2019-05-12T12:35:18.259Z,1.57
2019-05-12T12:37:39.882Z,1.65
2019-05-12T12:40:04.082Z,1.70
2019-05-12T12:42:30.311Z,1.70
2019-05-12T12:47:14.127Z,1.85
2019-05-12T12:49:39.889Z,2.00
2019-05-12T12:51:59.772Z,2.20
2019-05-12T12:54:21.393Z,2.10
2019-05-12T12:56:43.090Z,1.98
2019-05-12T12:59:10.134Z,2.12
2019-05-12T13:01:30.880Z,1.92
2019-05-12T13:03:53.598Z,2.10
2019-05-12T13:06:17.345Z,1.90
2019-05-12T13:08:38.440Z,2.10
2019-05-12T13:11:00.101Z,1.92
2019-05-12T13:13:21.742Z,1.98
2019-05-12T13:15:44.372Z,2.17
2019-05-12T13:18:08.951Z,1.90
2019-05-12T13:20:29.520Z,2.15
2019-05-12T13:22:53.496Z,2.08
2019-05-12T13:25:14.583Z,1.90
2019-05-12T13:27:36.912Z,2.22
2019-05-12T13:30:01.773Z,2.12
2019-05-12T13:32:25.941Z,2.17
2019-05-12T13:34:45.542Z,1.55
2019-05-12T13:37:09.256Z,1.85
2019-05-12T13:39:30.652Z,2.05
2019-05-12T13:41:56.279Z,1.75
2019-05-12T13:44:15.799Z,2.10
2019-05-12T13:46:37.445Z,2.50
2019-05-12T13:48:59.951Z,1.98
2019-05-12T13:51:23.963Z,2.22
2019-05-12T13:53:48.983Z,1.95
2019-05-12T13:56:08.768Z,1.57
2019-05-12T13:58:34.826Z,1.62
2019-05-12T14:01:10.375Z,1.95
2019-05-12T14:03:17.313Z,1.85
2019-05-12T14:05:41.218Z,2.00
2019-05-12T14:08:03.959Z,2.10
2019-05-12T14:10:25.789Z,2.20
2019-05-12T14:12:47.854Z,1.92
2019-05-12T14:15:09.483Z,2.22
2019-05-12T14:17:36.189Z,1.82
2019-05-12T14:19:54.586Z,1.75
2019-05-12T14:22:21.176Z,1.95
2019-05-12T14:24:41.871Z,1.82
2019-05-12T14:27:04.098Z,1.75
2019-05-12T14:29:30.452Z,1.70
2019-05-12T14:31:56.053Z,2.00
2019-05-12T14:36:37.069Z,1.65
2019-05-12T14:39:00.229Z,1.50
2019-05-12T14:41:24.857Z,1.80
2019-05-12T14:43:47.796Z,1.60
2019-05-12T14:46:10.524Z,1.82
2019-05-12T14:48:33.556Z,1.40
2019-05-12T14:50:55.532Z,1.50
2019-05-12T14:53:17.168Z,1.50
2019-05-12T14:55:38.808Z,1.80
2019-05-12T14:58:00.429Z,1.85
2019-05-12T15:00:24.150Z,1.40
2019-05-12T15:02:45.841Z,1.75
2019-05-12T15:05:10.797Z,1.75
2019-05-12T15:07:30.880Z,1.90
2019-05-12T15:09:55.682Z,1.55
2019-05-12T15:12:15.981Z,1.80
2019-05-12T15:14:38.250Z,1.72
2019-05-12T15:17:03.545Z,2.10
2019-05-12T15:19:27.818Z,1.60
2019-05-12T15:21:47.890Z,1.72
2019-05-12T15:24:15.231Z,1.70
2019-05-12T15:26:33.044Z,1.57
2019-05-12T15:28:54.684Z,1.60
2019-05-12T15:31:17.549Z,1.70
2019-05-12T15:33:39.246Z,1.80
2019-05-12T15:36:00.891Z,1.80
2019-05-12T15:38:23.905Z,1.80
2019-05-12T15:40:46.283Z,1.40
2019-05-12T15:43:09.302Z,1.80
2019-05-12T15:45:31.375Z,1.62
2019-05-12T15:47:53.568Z,1.92
2019-05-12T15:50:16.032Z,1.70
2019-05-12T15:52:42.495Z,1.70
2019-05-12T15:55:05.710Z,1.67
2019-05-12T15:57:28.991Z,1.80
2019-05-12T16:00:10.514Z,1.90
2019-05-12T16:02:33.992Z,1.67
2019-05-12T16:04:55.588Z,1.65
2019-05-12T16:07:17.257Z,2.00
2019-05-12T16:09:38.878Z,1.50
2019-05-12T16:12:10.005Z,1.70
2019-05-12T16:14:30.473Z,1.45
2019-05-12T16:16:54.723Z,1.65
2019-05-12T16:19:16.693Z,1.57
2019-05-12T16:21:38.730Z,1.55
2019-05-12T16:24:04.981Z,1.80
2019-05-12T16:26:24.224Z,1.65
2019-05-12T16:28:46.008Z,1.50
2019-05-12T16:31:08.972Z,1.80
2019-05-12T16:33:30.596Z,1.72
2019-05-12T16:35:54.509Z,1.82
2019-05-12T16:38:19.874Z,1.80
2019-05-12T16:40:44.854Z,2.00
2019-05-12T16:43:03.978Z,1.72
2019-05-12T16:45:25.806Z,2.00
2019-05-12T16:47:48.847Z,1.70
2019-05-12T16:50:15.075Z,1.90
2019-05-12T16:52:40.534Z,1.72
2019-05-12T16:54:58.448Z,1.70
2019-05-12T16:57:20.132Z,1.90
2019-05-12T16:59:42.658Z,1.67
2019-05-12T17:02:07.571Z,1.90
2019-05-12T17:04:27.770Z,1.80
2019-05-12T17:06:49.521Z,1.85
2019-05-12T17:09:13.452Z,1.70
2019-05-12T17:11:37.308Z,1.50
2019-05-12T17:14:04.029Z,1.82
2019-05-12T17:16:23.016Z,1.92
2019-05-12T17:18:44.667Z,1.70
2019-05-12T17:21:07.144Z,2.05
2019-05-12T17:23:28.776Z,1.98
2019-05-12T17:25:50.417Z,1.75
2019-05-12T17:28:13.598Z,1.80
2019-05-12T17:30:35.208Z,1.80
2019-05-12T17:33:01.412Z,1.77
2019-05-12T17:35:25.701Z,1.77
2019-05-12T17:37:43.720Z,1.65
2019-05-12T17:40:09.324Z,2.00
2019-05-12T17:42:29.784Z,1.62
2019-05-12T17:44:51.406Z,2.08
2019-05-12T17:47:21.390Z,1.70
2019-05-12T17:49:39.041Z,1.60
2019-05-12T17:52:04.276Z,1.55
2019-05-12T17:54:26.506Z,1.65
2019-05-12T17:56:47.174Z,1.47
2019-05-12T17:59:08.796Z,1.75
2019-05-12T18:01:31.533Z,1.62
2019-05-12T18:03:54.041Z,1.50
2019-05-12T18:06:20.394Z,1.82
2019-05-12T18:08:41.290Z,1.70
2019-05-12T18:11:03.760Z,1.70
2019-05-12T18:13:28.155Z,1.70
2019-05-12T18:18:15.296Z,2.12
2019-05-12T18:20:40.100Z,1.70
2019-05-12T18:22:58.875Z,2.07
2019-05-12T18:25:29.898Z,1.82
2019-05-12T18:27:50.620Z,1.98
2019-05-12T18:30:08.016Z,1.80
2019-05-12T18:32:29.639Z,2.10
2019-05-12T18:34:53.883Z,2.10
2019-05-12T18:37:15.246Z,2.02
2019-05-12T18:39:36.909Z,1.87
2019-05-12T18:41:58.497Z,1.95
2019-05-12T18:44:26.274Z,2.30
2019-05-12T18:46:46.460Z,1.90
2019-05-12T18:49:12.269Z,2.30
2019-05-12T18:51:34.149Z,2.40
2019-05-12T18:53:57.809Z,2.10
2019-05-12T18:56:21.772Z,2.62
2019-05-12T18:58:44.495Z,2.50
2019-05-12T19:01:06.768Z,2.25
2019-05-12T19:03:28.367Z,2.98
2019-05-12T19:05:50.016Z,2.77
2019-05-12T19:08:13.839Z,2.50
2019-05-12T19:10:38.575Z,2.17
2019-05-12T19:13:01.956Z,2.92
2019-05-12T19:15:22.209Z,3.02
2019-05-12T19:17:45.887Z,2.75
2019-05-12T19:20:07.454Z,2.70
2019-05-12T19:22:29.127Z,2.72
2019-05-12T19:24:58.293Z,2.72
2019-05-12T19:27:18.979Z,2.07
2019-05-12T19:29:45.482Z,1.90
2019-05-12T19:32:01.087Z,2.43
2019-05-12T19:34:25.898Z,2.85
2019-05-12T19:36:49.350Z,2.83
2019-05-12T19:39:09.582Z,1.83
2019-05-12T19:41:36.450Z,2.90
2019-05-12T19:43:54.735Z,3.10
2019-05-12T19:46:16.358Z,3.05
2019-05-12T19:48:47.636Z,2.85
2019-05-12T19:51:15.961Z,2.60
2019-05-12T19:53:25.020Z,2.80
2019-05-12T19:55:46.748Z,3.05
2019-05-12T19:58:12.724Z,3.00
2019-05-12T20:00:33.528Z,2.77
2019-05-12T20:02:55.463Z,2.90
2019-05-12T20:05:17.762Z,3.33
2019-05-12T20:07:39.505Z,3.17
2019-05-12T20:10:01.191Z,3.47
2019-05-12T20:12:24.124Z,3.37
2019-05-12T20:14:45.968Z,3.10
2019-05-12T20:17:07.624Z,3.17
2019-05-12T20:19:29.295Z,3.40
2019-05-12T20:21:50.913Z,3.47
2019-05-12T20:24:14.333Z,3.40
2019-05-12T20:26:38.388Z,3.60
2019-05-12T20:28:59.440Z,3.50
2019-05-12T20:31:24.466Z,3.42
2019-05-12T20:33:45.439Z,3.30
2019-05-12T20:36:07.058Z,3.37
2019-05-12T20:38:33.921Z,3.25
2019-05-12T20:40:54.039Z,4.00
2019-05-12T20:43:15.563Z,3.10
2019-05-12T20:45:40.839Z,3.22
2019-05-12T20:48:00.725Z,3.72
2019-05-12T20:50:24.311Z,3.27
2019-05-12T20:52:51.257Z,3.20
2019-05-12T20:55:09.300Z,3.10
2019-05-12T20:57:30.924Z,3.08
2019-05-12T20:59:52.628Z,2.90
2019-05-12T21:02:14.263Z,2.92
2019-05-12T21:04:37.908Z,3.30
2019-05-12T21:06:59.332Z,3.47
2019-05-12T21:09:23.518Z,3.55
2019-05-12T21:11:44.399Z,3.30
2019-05-12T21:14:09.741Z,3.55
2019-05-12T21:16:34.622Z,3.87
2019-05-12T21:19:05.593Z,3.57
2019-05-12T21:21:16.403Z,3.70
2019-05-12T21:23:38.070Z,3.70
2019-05-12T21:25:59.686Z,3.60
2019-05-12T21:28:23.631Z,3.67
2019-05-12T21:30:48.094Z,3.40
2019-05-12T21:33:08.201Z,2.93
2019-05-12T21:35:39.180Z,4.08
2019-05-12T21:37:53.736Z,4.00
2019-05-12T21:40:15.608Z,4.15
2019-05-12T21:42:37.263Z,4.10
2019-05-12T21:44:58.909Z,3.95
2019-05-12T21:47:20.562Z,4.60
2019-05-12T21:49:42.609Z,4.60
2019-05-12T21:52:06.666Z,5.13
2019-05-12T21:54:29.421Z,4.37
2019-05-12T21:56:54.284Z,4.60
2019-05-12T22:01:43.171Z,4.40
2019-05-12T22:04:02.572Z,4.62
2019-05-12T22:06:24.921Z,4.97
2019-05-12T22:08:46.950Z,4.30
2019-05-12T22:11:11.491Z,4.37
2019-05-12T22:13:32.048Z,4.93
2019-05-12T22:15:56.969Z,4.78
2019-05-12T22:18:17.493Z,4.43
2019-05-12T22:20:39.101Z,4.60
2019-05-12T22:23:06.176Z,4.58
2019-05-12T22:25:24.208Z,4.67
2019-05-12T22:27:46.239Z,5.17
2019-05-12T22:30:07.863Z,4.62
2019-05-12T22:32:29.875Z,4.53
2019-05-12T22:34:51.494Z,4.95
2019-05-12T22:37:13.571Z,4.83
2019-05-12T22:39:35.524Z,4.30
2019-05-12T22:41:57.099Z,4.20
2019-05-12T22:44:22.036Z,4.87
2019-05-12T22:46:43.590Z,4.97
2019-05-12T22:49:10.343Z,4.90
2019-05-12T22:51:29.032Z,4.60
2019-05-12T22:53:50.686Z,4.80
2019-05-12T22:56:17.523Z,5.08
2019-05-12T22:58:35.909Z,4.83
2019-05-12T23:01:01.056Z,4.90
2019-05-12T23:03:20.970Z,5.07
2019-05-12T23:05:42.951Z,5.20
2019-05-12T23:08:06.728Z,4.65
2019-05-12T23:10:27.998Z,5.50
2019-05-12T23:12:50.180Z,4.92
2019-05-12T23:15:13.647Z,5.10
2019-05-12T23:17:39.050Z,5.03
2019-05-12T23:19:58.954Z,4.50
2019-05-12T23:22:20.587Z,5.08
2019-05-12T23:24:44.127Z,4.70
2019-05-12T23:27:08.583Z,5.17
2019-05-12T23:29:31.031Z,4.83
2019-05-12T23:31:53.671Z,4.87
2019-05-12T23:34:15.479Z,5.17
2019-05-12T23:36:39.178Z,4.45
2019-05-12T23:39:01.996Z,3.73
2019-05-12T23:41:24.012Z,4.97
2019-05-12T23:43:45.648Z,4.65
2019-05-12T23:46:07.332Z,5.12
2019-05-12T23:48:28.962Z,4.83
2019-05-12T23:50:50.575Z,5.00
2019-05-12T23:53:14.062Z,5.05
2019-05-12T23:55:35.644Z,4.77
2019-05-12T23:57:57.265Z,4.85
